createdAt,value
2023-05-19T00:00:49.079Z,1022.4
2023-05-19T00:01:45.523Z,1022.4
2023-05-19T00:02:45.738Z,1022.3
2023-05-19T00:03:45.507Z,1022.3
2023-05-19T00:04:45.513Z,1022.3
2023-05-19T00:05:45.612Z,1022.3
2023-05-19T00:06:45.542Z,1022.3
2023-05-19T00:07:45.560Z,1022.4
2023-05-19T00:08:45.552Z,1022.3
2023-05-19T00:09:45.561Z,1022.3
2023-05-19T00:10:45.587Z,1022.3
2023-05-19T00:11:45.612Z,1022.4
2023-05-19T00:12:45.591Z,1022.3
2023-05-19T00:13:45.588Z,1022.3
2023-05-19T00:14:45.671Z,1022.4
2023-05-19T00:15:45.736Z,1022.3
2023-05-19T00:16:45.624Z,1022.4
2023-05-19T00:17:45.769Z,1022.4
2023-05-19T00:18:45.677Z,1022.4
2023-05-19T00:19:45.648Z,1022.3
2023-05-19T00:20:45.646Z,1022.3
2023-05-19T00:21:45.681Z,1022.4
2023-05-19T00:22:45.666Z,1022.4
2023-05-19T00:23:45.682Z,1022.3
2023-05-19T00:24:45.773Z,1022.4
2023-05-19T00:25:45.707Z,1022.3
2023-05-19T00:26:45.699Z,1022.3
2023-05-19T00:27:45.718Z,1022.3
2023-05-19T00:28:45.728Z,1022.3
2023-05-19T00:46:46.245Z,1022.2
2023-05-19T00:47:46.026Z,1022.2
2023-05-19T00:48:45.918Z,1022.2
2023-05-19T00:49:45.905Z,1022.2
2023-05-19T00:50:45.926Z,1022.2
2023-05-19T00:51:45.943Z,1022.2
2023-05-19T00:52:45.948Z,1022.2
2023-05-19T00:53:45.956Z,1022.2
2023-05-19T00:54:46.077Z,1022.2
2023-05-19T00:55:45.984Z,1022.2
2023-05-19T00:56:46.006Z,1022.2
2023-05-19T00:57:46.012Z,1022.2
2023-05-19T00:58:46.043Z,1022.1
2023-05-19T00:59:46.025Z,1022.1
2023-05-19T01:00:46.139Z,1022.1
2023-05-19T01:01:46.058Z,1022.2
2023-05-19T01:02:46.282Z,1022.1
2023-05-19T01:03:46.269Z,1022.2
2023-05-19T01:04:46.081Z,1022.2
2023-05-19T01:05:46.083Z,1022.2
2023-05-19T01:06:46.108Z,1022.2
2023-05-19T01:07:46.115Z,1022.2
2023-05-19T01:08:46.123Z,1022.2
2023-05-19T01:09:46.127Z,1022.1
2023-05-19T01:10:46.158Z,1022.1
2023-05-19T01:11:46.145Z,1022.1
2023-05-19T01:12:46.168Z,1022.2
2023-05-19T01:13:46.163Z,1022.1
2023-05-19T01:14:46.167Z,1022.2
2023-05-19T01:15:46.182Z,1022.2
2023-05-19T01:16:46.350Z,1022.2
2023-05-19T01:17:46.270Z,1022.1
2023-05-19T01:18:46.382Z,1022.1
2023-05-19T01:19:46.248Z,1022.1
2023-05-19T01:20:46.246Z,1022.2
2023-05-19T01:21:46.244Z,1022.2
2023-05-19T01:22:46.268Z,1022.1
2023-05-19T01:23:46.255Z,1022.1
2023-05-19T01:24:46.274Z,1022.2
2023-05-19T01:25:46.283Z,1022.2
2023-05-19T01:26:46.299Z,1022.2
2023-05-19T01:27:46.300Z,1022.2
2023-05-19T01:28:46.313Z,1022.2
2023-05-19T01:29:46.338Z,1022.2
2023-05-19T01:30:46.341Z,1022.2
2023-05-19T01:31:46.391Z,1022.2
2023-05-19T01:32:46.469Z,1022.2
2023-05-19T01:33:46.358Z,1022.2
2023-05-19T01:34:46.370Z,1022.2
2023-05-19T01:35:46.372Z,1022.2
2023-05-19T01:36:46.372Z,1022.1
2023-05-19T01:37:46.416Z,1022.1
2023-05-19T01:38:46.382Z,1022.1
2023-05-19T01:39:46.399Z,1022.2
2023-05-19T01:40:46.436Z,1022.2
2023-05-19T01:41:46.426Z,1022.3
2023-05-19T01:42:46.441Z,1022.2
2023-05-19T01:43:46.432Z,1022.1
2023-05-19T01:44:46.438Z,1022.2
2023-05-19T01:45:46.509Z,1022.1
2023-05-19T01:46:46.464Z,1022.2
2023-05-19T01:47:46.556Z,1022.2
2023-05-19T01:48:46.473Z,1022.2
2023-05-19T01:49:46.479Z,1022.2
2023-05-19T01:50:46.482Z,1022.1
2023-05-19T01:51:46.513Z,1022.2
2023-05-19T01:52:46.512Z,1022.2
2023-05-19T01:53:46.521Z,1022.2
2023-05-19T01:54:46.553Z,1022.3
2023-05-19T01:55:46.557Z,1022.3
2023-05-19T01:56:46.557Z,1022.2
2023-05-19T01:57:46.569Z,1022.3
2023-05-19T01:58:46.588Z,1022.2
2023-05-19T01:59:46.596Z,1022.2
2023-05-19T02:00:46.600Z,1022.3
2023-05-19T02:01:46.817Z,1022.3
2023-05-19T02:02:46.688Z,1022.3
2023-05-19T02:03:46.644Z,1022.3
2023-05-19T02:04:46.848Z,1022.3
2023-05-19T02:05:46.659Z,1022.3
2023-05-19T02:06:46.680Z,1022.3
2023-05-19T02:07:46.722Z,1022.3
2023-05-19T02:08:46.704Z,1022.3
2023-05-19T02:09:46.712Z,1022.3
2023-05-19T02:10:46.720Z,1022.3
2023-05-19T02:11:46.763Z,1022.3
2023-05-19T02:12:46.746Z,1022.4
2023-05-19T02:13:46.756Z,1022.3
2023-05-19T02:14:46.748Z,1022.3
2023-05-19T02:15:46.821Z,1022.3
2023-05-19T02:16:46.778Z,1022.3
2023-05-19T02:17:46.916Z,1022.3
2023-05-19T02:18:46.862Z,1022.3
2023-05-19T02:19:46.805Z,1022.2
2023-05-19T02:20:46.826Z,1022.3
2023-05-19T02:21:46.830Z,1022.3
2023-05-19T02:22:46.858Z,1022.3
2023-05-19T02:23:46.840Z,1022.2
2023-05-19T02:24:46.861Z,1022.3
2023-05-19T02:25:46.868Z,1022.3
2023-05-19T02:26:46.868Z,1022.2
2023-05-19T02:27:46.887Z,1022.3
2023-05-19T02:28:46.900Z,1022.2
2023-05-19T02:29:46.922Z,1022.3
2023-05-19T02:30:46.949Z,1022.2
2023-05-19T02:31:47.015Z,1022.2
2023-05-19T02:32:47.233Z,1022.2
2023-05-19T02:33:46.949Z,1022.2
2023-05-19T02:34:46.965Z,1022.1
2023-05-19T02:35:46.971Z,1022.2
2023-05-19T02:36:46.989Z,1022.2
2023-05-19T02:37:46.992Z,1022.2
2023-05-19T02:38:47.008Z,1022.1
2023-05-19T02:39:47.002Z,1022.1
2023-05-19T02:40:47.027Z,1022.2
2023-05-19T02:41:47.047Z,1022.2
2023-05-19T02:42:47.046Z,1022.2
2023-05-19T02:43:47.071Z,1022.2
2023-05-19T02:44:47.066Z,1022.1
2023-05-19T02:45:47.083Z,1022.1
2023-05-19T02:46:47.307Z,1022.2
2023-05-19T02:47:47.180Z,1022.1
2023-05-19T02:48:47.101Z,1022.1
2023-05-19T02:49:47.128Z,1022.1
2023-05-19T02:50:47.125Z,1022.1
2023-05-19T02:51:47.165Z,1022.1
2023-05-19T02:52:47.152Z,1022.1
2023-05-19T02:53:47.162Z,1022.1
2023-05-19T02:54:47.213Z,1022.2
2023-05-19T02:55:47.203Z,1022.1
2023-05-19T02:56:47.183Z,1022.1
2023-05-19T02:57:47.201Z,1022.2
2023-05-19T02:58:47.212Z,1022.2
2023-05-19T02:59:47.229Z,1022.1
2023-05-19T03:00:47.241Z,1022.1
2023-05-19T03:01:47.330Z,1022.1
2023-05-19T03:02:47.403Z,1022.2
2023-05-19T03:03:47.454Z,1022.1
2023-05-19T03:04:47.275Z,1022.1
2023-05-19T03:05:47.300Z,1022.1
2023-05-19T03:06:47.306Z,1022.1
2023-05-19T03:07:47.322Z,1022.1
2023-05-19T03:08:47.324Z,1022.0
2023-05-19T03:09:47.346Z,1022.0
2023-05-19T03:10:47.336Z,1022.0
2023-05-19T03:11:47.361Z,1022.0
2023-05-19T03:12:47.370Z,1022.1
2023-05-19T03:13:49.208Z,1022.0
2023-05-19T03:14:49.214Z,1022.0
2023-05-19T03:15:47.541Z,1022.0
2023-05-19T03:16:47.487Z,1022.0
2023-05-19T03:17:47.650Z,1022.0
2023-05-19T03:18:47.629Z,1022.0
2023-05-19T03:19:47.447Z,1022.0
2023-05-19T03:20:47.473Z,1022.0
2023-05-19T03:21:47.473Z,1021.9
2023-05-19T03:22:47.467Z,1022.0
2023-05-19T03:23:47.471Z,1022.0
2023-05-19T03:24:47.480Z,1022.0
2023-05-19T03:25:47.493Z,1022.0
2023-05-19T03:26:47.515Z,1022.0
2023-05-19T03:27:47.526Z,1022.0
2023-05-19T03:28:47.534Z,1022.0
2023-05-19T03:29:47.531Z,1022.0
2023-05-19T03:30:47.558Z,1022.0
2023-05-19T03:31:47.557Z,1022.0
2023-05-19T03:32:48.014Z,1022.0
2023-05-19T03:33:47.586Z,1021.9
2023-05-19T03:34:47.636Z,1021.9
2023-05-19T03:35:47.629Z,1022.0
2023-05-19T03:36:47.598Z,1022.0
2023-05-19T03:37:47.630Z,1022.0
2023-05-19T03:38:47.645Z,1021.9
2023-05-19T03:39:47.658Z,1021.9
2023-05-19T03:40:47.721Z,1022.0
2023-05-19T03:41:47.660Z,1022.0
2023-05-19T03:42:47.671Z,1022.0
2023-05-19T03:43:47.693Z,1022.0
2023-05-19T03:44:47.693Z,1022.0
2023-05-19T03:45:47.760Z,1022.0
2023-05-19T03:46:47.716Z,1022.1
2023-05-19T03:47:47.893Z,1022.0
2023-05-19T03:48:47.746Z,1022.1
2023-05-19T03:49:47.759Z,1022.1
2023-05-19T03:50:47.749Z,1022.0
2023-05-19T03:51:47.771Z,1022.0
2023-05-19T03:52:47.782Z,1022.1
2023-05-19T03:53:47.794Z,1022.1
2023-05-19T03:54:47.810Z,1022.1
2023-05-19T03:55:47.817Z,1022.2
2023-05-19T03:56:47.820Z,1022.1
2023-05-19T03:57:47.824Z,1022.1
2023-05-19T03:58:47.837Z,1022.1
2023-05-19T03:59:47.853Z,1022.1
2023-05-19T04:00:47.855Z,1022.2
2023-05-19T04:01:47.880Z,1022.1
2023-05-19T04:02:48.080Z,1022.1
2023-05-19T04:03:47.983Z,1022.1
2023-05-19T04:04:48.116Z,1022.1
2023-05-19T04:05:47.919Z,1022.1
2023-05-19T04:06:47.923Z,1022.2
2023-05-19T04:07:47.947Z,1022.2
2023-05-19T04:08:47.959Z,1022.2
2023-05-19T04:09:47.954Z,1022.1
2023-05-19T04:10:47.967Z,1022.1
2023-05-19T04:11:47.974Z,1022.1
2023-05-19T04:12:48.101Z,1022.1
2023-05-19T04:13:48.020Z,1022.0
2023-05-19T04:14:48.024Z,1022.1
2023-05-19T04:15:48.115Z,1022.1
2023-05-19T04:16:48.036Z,1022.1
2023-05-19T04:17:48.141Z,1022.1
2023-05-19T04:18:48.141Z,1022.1
2023-05-19T04:19:48.059Z,1022.1
2023-05-19T04:20:48.067Z,1022.2
2023-05-19T04:21:48.083Z,1022.1
2023-05-19T04:22:48.085Z,1022.1
2023-05-19T04:23:48.125Z,1022.1
2023-05-19T04:24:48.105Z,1022.2
2023-05-19T04:25:48.127Z,1022.1
2023-05-19T04:26:48.122Z,1022.2
2023-05-19T04:27:48.139Z,1022.2
2023-05-19T04:28:48.160Z,1022.2
2023-05-19T04:29:48.171Z,1022.2
2023-05-19T04:30:48.218Z,1022.2
2023-05-19T04:31:48.188Z,1022.2
2023-05-19T04:32:48.253Z,1022.2
2023-05-19T04:33:48.215Z,1022.2
2023-05-19T04:34:48.236Z,1022.2
2023-05-19T04:35:48.268Z,1022.2
2023-05-19T04:36:51.049Z,1022.2
2023-05-19T04:37:48.276Z,1022.2
2023-05-19T04:38:48.275Z,1022.2
2023-05-19T04:39:48.276Z,1022.1
2023-05-19T04:40:48.298Z,1022.1
2023-05-19T04:41:48.343Z,1022.2
2023-05-19T04:42:48.321Z,1022.2
2023-05-19T04:43:48.341Z,1022.2
2023-05-19T04:44:48.349Z,1022.2
2023-05-19T04:45:48.357Z,1022.3
2023-05-19T04:46:48.426Z,1022.2
2023-05-19T04:47:48.612Z,1022.2
2023-05-19T04:48:48.386Z,1022.3
2023-05-19T04:49:48.412Z,1022.2
2023-05-19T04:50:48.397Z,1022.2
2023-05-19T04:51:48.409Z,1022.2
2023-05-19T04:52:48.411Z,1022.2
2023-05-19T04:53:48.423Z,1022.2
2023-05-19T04:54:48.441Z,1022.2
2023-05-19T04:55:48.462Z,1022.2
2023-05-19T04:56:48.528Z,1022.3
2023-05-19T04:57:48.476Z,1022.2
2023-05-19T04:58:48.490Z,1022.2
2023-05-19T04:59:48.513Z,1022.2
2023-05-19T05:00:48.511Z,1022.2
2023-05-19T05:01:48.637Z,1022.2
2023-05-19T05:02:48.739Z,1022.2
2023-05-19T05:03:48.767Z,1022.2
2023-05-19T05:04:48.570Z,1022.2
2023-05-19T05:05:48.590Z,1022.2
2023-05-19T05:06:48.580Z,1022.2
2023-05-19T05:07:48.595Z,1022.2
2023-05-19T05:08:48.609Z,1022.2
2023-05-19T05:09:48.618Z,1022.3
2023-05-19T05:10:48.624Z,1022.2
2023-05-19T05:11:48.649Z,1022.2
2023-05-19T05:12:48.648Z,1022.3
2023-05-19T05:13:48.946Z,1022.2
2023-05-19T05:14:48.702Z,1022.2
2023-05-19T05:15:48.694Z,1022.3
2023-05-19T05:16:48.830Z,1022.2
2023-05-19T05:17:48.773Z,1022.2
2023-05-19T05:18:48.857Z,1022.2
2023-05-19T05:19:48.859Z,1022.2
2023-05-19T05:20:48.763Z,1022.2
2023-05-19T05:21:48.774Z,1022.2
2023-05-19T05:22:48.777Z,1022.3
2023-05-19T05:23:48.796Z,1022.2
2023-05-19T05:24:48.816Z,1022.2
2023-05-19T05:25:48.815Z,1022.2
2023-05-19T05:26:48.834Z,1022.2
2023-05-19T05:27:48.848Z,1022.2
2023-05-19T05:28:48.866Z,1022.2
2023-05-19T05:29:51.122Z,1022.3
2023-05-19T05:30:48.889Z,1022.3
2023-05-19T05:31:48.887Z,1022.2
2023-05-19T05:32:49.045Z,1022.3
2023-05-19T05:33:48.979Z,1022.2
2023-05-19T05:34:48.932Z,1022.2
2023-05-19T05:35:48.952Z,1022.2
2023-05-19T05:36:48.966Z,1022.3
2023-05-19T05:37:48.976Z,1022.2
2023-05-19T05:38:48.984Z,1022.2
2023-05-19T05:39:49.009Z,1022.2
2023-05-19T05:40:48.997Z,1022.3
2023-05-19T05:41:49.010Z,1022.2
2023-05-19T05:42:49.037Z,1022.2
2023-05-19T05:43:49.029Z,1022.2
2023-05-19T05:44:49.033Z,1022.3
2023-05-19T05:45:49.100Z,1022.2
2023-05-19T05:46:49.048Z,1022.3
2023-05-19T05:47:49.177Z,1022.3
2023-05-19T05:48:49.097Z,1022.3
2023-05-19T05:49:50.608Z,1022.2
2023-05-19T05:50:49.105Z,1022.3
2023-05-19T05:52:05.464Z,1022.3
2023-05-19T05:52:49.128Z,1022.3
2023-05-19T05:53:49.161Z,1022.3
2023-05-19T05:54:49.166Z,1022.4
2023-05-19T05:55:49.166Z,1022.4
2023-05-19T05:56:49.158Z,1022.3
2023-05-19T05:57:49.172Z,1022.3
2023-05-19T05:58:49.186Z,1022.3
2023-05-19T05:59:49.197Z,1022.4
2023-05-19T06:00:49.216Z,1022.3
2023-05-19T06:01:49.206Z,1022.3
2023-05-19T06:02:49.488Z,1022.4
2023-05-19T06:03:49.363Z,1022.3
2023-05-19T06:04:49.230Z,1022.3
2023-05-19T06:05:49.397Z,1022.3
2023-05-19T06:06:49.289Z,1022.3
2023-05-19T06:07:49.291Z,1022.3
2023-05-19T06:08:49.295Z,1022.3
2023-05-19T06:09:49.306Z,1022.4
2023-05-19T06:10:49.315Z,1022.3
2023-05-19T06:11:49.347Z,1022.3
2023-05-19T06:12:49.339Z,1022.3
2023-05-19T06:13:49.364Z,1022.3
2023-05-19T06:14:49.365Z,1022.3
2023-05-19T06:15:49.476Z,1022.3
2023-05-19T06:16:49.413Z,1022.4
2023-05-19T06:17:49.516Z,1022.4
2023-05-19T06:18:49.588Z,1022.4
2023-05-19T06:19:49.421Z,1022.3
2023-05-19T06:20:49.429Z,1022.4
2023-05-19T06:21:49.446Z,1022.4
2023-05-19T06:22:49.525Z,1022.3
2023-05-19T06:23:49.481Z,1022.3
2023-05-19T06:24:49.472Z,1022.3
2023-05-19T06:25:49.467Z,1022.3
2023-05-19T06:26:49.492Z,1022.2
2023-05-19T06:27:49.495Z,1022.2
2023-05-19T06:28:49.509Z,1022.4
2023-05-19T06:29:49.522Z,1022.3
2023-05-19T06:30:49.541Z,1022.3
2023-05-19T06:31:49.594Z,1022.3
2023-05-19T06:32:49.671Z,1022.4
2023-05-19T06:33:49.585Z,1022.3
2023-05-19T06:34:49.564Z,1022.3
2023-05-19T06:35:49.596Z,1022.3
2023-05-19T06:36:49.608Z,1022.3
2023-05-19T06:37:49.596Z,1022.3
2023-05-19T06:38:49.645Z,1022.3
2023-05-19T06:39:49.623Z,1022.3
2023-05-19T06:40:49.640Z,1022.3
2023-05-19T06:41:49.650Z,1022.3
2023-05-19T06:42:49.693Z,1022.3
2023-05-19T06:43:49.706Z,1022.3
2023-05-19T06:44:49.709Z,1022.3
2023-05-19T06:45:49.718Z,1022.3
2023-05-19T06:46:49.871Z,1022.3
2023-05-19T06:47:49.808Z,1022.4
2023-05-19T06:48:49.756Z,1022.3
2023-05-19T06:49:49.761Z,1022.3
2023-05-19T06:50:49.779Z,1022.3
2023-05-19T06:51:49.790Z,1022.3
2023-05-19T06:52:49.827Z,1022.3
2023-05-19T06:53:49.801Z,1022.3
2023-05-19T06:54:49.817Z,1022.3
2023-05-19T06:56:00.307Z,1022.3
2023-05-19T06:56:49.845Z,1022.3
2023-05-19T06:57:49.854Z,1022.2
2023-05-19T06:58:49.875Z,1022.4
2023-05-19T06:59:49.887Z,1022.3
2023-05-19T07:00:49.894Z,1022.3
2023-05-19T07:01:49.994Z,1022.5
2023-05-19T07:02:50.291Z,1022.5
2023-05-19T07:03:50.117Z,1022.4
2023-05-19T07:04:49.950Z,1022.4
2023-05-19T07:05:49.995Z,1022.4
2023-05-19T07:06:49.984Z,1022.4
2023-05-19T07:07:49.991Z,1022.4
2023-05-19T07:08:50.462Z,1022.4
2023-05-19T07:09:50.044Z,1022.3
2023-05-19T07:10:50.036Z,1022.3
2023-05-19T07:11:50.038Z,1022.4
2023-05-19T07:12:50.053Z,1022.4
2023-05-19T07:13:50.072Z,1022.4
2023-05-19T07:14:50.113Z,1022.3
2023-05-19T07:15:50.145Z,1022.4
2023-05-19T07:16:50.265Z,1022.5
2023-05-19T07:17:50.175Z,1022.4
2023-05-19T07:18:50.202Z,1022.4
2023-05-19T07:19:50.136Z,1022.4
2023-05-19T07:20:50.142Z,1022.4
2023-05-19T07:21:50.154Z,1022.4
2023-05-19T07:22:50.163Z,1022.4
2023-05-19T07:23:50.192Z,1022.4
2023-05-19T07:24:50.186Z,1022.4
2023-05-19T07:25:50.199Z,1022.4
2023-05-19T07:26:50.204Z,1022.4
2023-05-19T07:27:50.227Z,1022.5
2023-05-19T07:28:50.249Z,1022.4
2023-05-19T07:29:50.241Z,1022.4
2023-05-19T07:30:50.251Z,1022.4
2023-05-19T07:31:50.361Z,1022.4
2023-05-19T07:32:50.313Z,1022.4
2023-05-19T07:33:54.700Z,1022.3
2023-05-19T07:34:50.286Z,1022.3
2023-05-19T07:35:50.310Z,1022.4
2023-05-19T07:36:50.319Z,1022.3
2023-05-19T07:37:50.318Z,1022.3
2023-05-19T07:38:50.448Z,1022.3
2023-05-19T07:39:50.350Z,1022.4
2023-05-19T07:40:50.333Z,1022.4
2023-05-19T07:41:50.362Z,1022.4
2023-05-19T07:42:50.376Z,1022.4
2023-05-19T07:43:50.397Z,1022.4
2023-05-19T07:44:50.388Z,1022.4
2023-05-19T07:45:50.491Z,1022.4
2023-05-19T07:46:50.471Z,1022.3
2023-05-19T07:47:50.529Z,1022.3
2023-05-19T07:48:50.447Z,1022.4
2023-05-19T07:49:52.197Z,1022.3
2023-05-19T07:50:50.475Z,1022.4
2023-05-19T07:51:50.563Z,1022.4
2023-05-19T07:52:50.509Z,1022.4
2023-05-19T07:53:50.521Z,1022.4
2023-05-19T07:54:50.529Z,1022.4
2023-05-19T07:55:50.538Z,1022.4
2023-05-19T07:56:50.557Z,1022.4
2023-05-19T07:57:50.551Z,1022.4
2023-05-19T07:58:50.578Z,1022.4
2023-05-19T07:59:50.639Z,1022.4
2023-05-19T08:00:50.592Z,1022.4
2023-05-19T08:01:50.608Z,1022.4
2023-05-19T08:02:50.739Z,1022.3
2023-05-19T08:03:50.792Z,1022.4
2023-05-19T08:04:50.713Z,1022.3
2023-05-19T08:05:50.657Z,1022.3
2023-05-19T08:06:50.663Z,1022.3
2023-05-19T08:07:50.680Z,1022.3
2023-05-19T08:08:50.690Z,1022.3
2023-05-19T08:09:50.703Z,1022.4
2023-05-19T08:10:50.720Z,1022.3
2023-05-19T08:11:50.736Z,1022.3
2023-05-19T08:12:50.759Z,1022.3
2023-05-19T08:13:50.792Z,1022.3
2023-05-19T08:14:50.767Z,1022.3
2023-05-19T08:15:50.870Z,1022.3
2023-05-19T08:16:50.794Z,1022.3
2023-05-19T08:17:50.870Z,1022.4
2023-05-19T08:18:50.845Z,1022.3
2023-05-19T08:19:50.821Z,1022.3
2023-05-19T08:20:50.845Z,1022.2
2023-05-19T08:21:50.919Z,1022.3
2023-05-19T08:22:50.927Z,1022.2
2023-05-19T08:23:50.969Z,1022.3
2023-05-19T08:24:50.935Z,1022.2
2023-05-19T08:25:50.963Z,1022.2
2023-05-19T08:26:50.961Z,1022.4
2023-05-19T08:27:50.982Z,1022.3
2023-05-19T08:28:51.038Z,1022.3
2023-05-19T08:29:51.006Z,1022.3
2023-05-19T08:30:51.016Z,1022.3
2023-05-19T08:31:51.137Z,1022.3
2023-05-19T08:32:51.163Z,1022.3
2023-05-19T08:33:51.051Z,1022.4
2023-05-19T08:34:51.069Z,1022.3
2023-05-19T08:35:51.085Z,1022.3
2023-05-19T08:36:51.090Z,1022.3
2023-05-19T08:37:51.109Z,1022.3
2023-05-19T08:38:51.121Z,1022.3
2023-05-19T08:39:51.210Z,1022.3
2023-05-19T08:40:51.181Z,1022.3
2023-05-19T08:41:51.178Z,1022.3
2023-05-19T08:42:51.190Z,1022.2
2023-05-19T08:43:51.173Z,1022.2
2023-05-19T08:44:51.192Z,1022.2
2023-05-19T08:45:51.198Z,1022.3
2023-05-19T08:46:51.359Z,1022.3
2023-05-19T08:47:51.363Z,1022.3
2023-05-19T08:48:51.231Z,1022.3
2023-05-19T08:49:51.242Z,1022.3
2023-05-19T08:50:51.262Z,1022.3
2023-05-19T08:51:51.290Z,1022.2
2023-05-19T08:53:51.301Z,1022.2
2023-05-19T08:54:51.334Z,1022.2
2023-05-19T08:55:51.326Z,1022.2
2023-05-19T08:56:51.363Z,1022.2
2023-05-19T08:57:51.358Z,1022.2
2023-05-19T08:58:51.394Z,1022.1
2023-05-19T08:59:51.410Z,1022.2
2023-05-19T09:00:51.478Z,1022.2
2023-05-19T09:01:51.493Z,1022.2
2023-05-19T09:03:51.536Z,1022.2
2023-05-19T09:04:51.541Z,1022.2
2023-05-19T09:05:51.834Z,1022.2
2023-05-19T09:06:51.461Z,1022.1
2023-05-19T09:07:51.479Z,1022.2
2023-05-19T09:08:51.500Z,1022.1
2023-05-19T09:09:51.492Z,1022.1
2023-05-19T09:10:51.516Z,1022.1
2023-05-19T09:11:51.527Z,1022.1
2023-05-19T09:12:51.562Z,1022.1
2023-05-19T09:13:51.706Z,1022.0
2023-05-19T09:14:51.577Z,1022.0
2023-05-19T09:15:51.584Z,1022.0
2023-05-19T09:16:51.628Z,1022.0
2023-05-19T09:17:51.701Z,1022.1
2023-05-19T09:18:51.643Z,1022.0
2023-05-19T09:19:51.649Z,1022.0
2023-05-19T09:20:51.642Z,1022.0
2023-05-19T09:21:51.649Z,1022.0
2023-05-19T09:22:51.663Z,1022.1
2023-05-19T09:23:51.683Z,1022.0
2023-05-19T09:24:51.707Z,1022.1
2023-05-19T09:25:51.713Z,1022.0
2023-05-19T09:26:51.717Z,1022.0
2023-05-19T09:27:51.732Z,1022.0
2023-05-19T09:28:51.732Z,1022.0
2023-05-19T09:29:51.750Z,1022.0
2023-05-19T09:30:51.772Z,1022.1
2023-05-19T09:31:52.133Z,1022.1
2023-05-19T09:32:51.915Z,1022.0
2023-05-19T09:33:51.819Z,1022.0
2023-05-19T09:34:51.838Z,1022.2
2023-05-19T09:35:51.835Z,1022.0
2023-05-19T09:36:51.909Z,1022.0
2023-05-19T09:37:51.860Z,1022.0
2023-05-19T09:38:51.874Z,1022.0
2023-05-19T09:39:51.895Z,1022.1
2023-05-19T09:40:51.919Z,1022.0
2023-05-19T09:41:51.911Z,1022.0
2023-05-19T09:42:51.912Z,1022.0
2023-05-19T09:43:51.941Z,1022.0
2023-05-19T09:44:51.966Z,1021.9
2023-05-19T09:45:52.029Z,1022.0
2023-05-19T09:46:51.982Z,1022.0
2023-05-19T09:47:52.071Z,1022.0
2023-05-19T09:48:52.029Z,1022.0
2023-05-19T09:49:52.026Z,1021.9
2023-05-19T09:50:52.035Z,1022.0
2023-05-19T09:51:52.096Z,1022.0
2023-05-19T09:52:52.087Z,1022.0
2023-05-19T09:53:52.148Z,1022.0
2023-05-19T09:54:52.083Z,1022.0
2023-05-19T09:55:52.090Z,1022.0
2023-05-19T09:56:52.104Z,1021.9
2023-05-19T09:57:52.129Z,1021.9
2023-05-19T09:58:52.135Z,1021.9
2023-05-19T09:59:52.150Z,1021.9
2023-05-19T10:00:52.155Z,1021.9
2023-05-19T10:01:52.367Z,1022.0
2023-05-19T10:02:52.245Z,1021.8
2023-05-19T10:03:52.214Z,1021.9
2023-05-19T10:04:52.283Z,1021.8
2023-05-19T10:05:52.253Z,1021.8
2023-05-19T10:06:52.246Z,1021.8
2023-05-19T10:07:52.259Z,1021.8
2023-05-19T10:08:52.275Z,1021.7
2023-05-19T10:09:52.302Z,1021.8
2023-05-19T10:10:52.340Z,1021.8
2023-05-19T10:11:52.427Z,1021.7
2023-05-19T10:12:52.308Z,1021.7
2023-05-19T10:13:52.349Z,1021.7
2023-05-19T10:14:52.346Z,1021.6
2023-05-19T10:15:58.561Z,1021.6
2023-05-19T10:16:52.548Z,1021.6
2023-05-19T10:17:52.532Z,1021.6
2023-05-19T10:18:52.454Z,1021.6
2023-05-19T10:19:52.392Z,1021.6
2023-05-19T10:20:52.489Z,1021.5
2023-05-19T10:21:52.424Z,1021.5
2023-05-19T10:22:52.443Z,1021.6
2023-05-19T10:23:52.466Z,1021.6
2023-05-19T10:24:52.466Z,1021.5
2023-05-19T10:25:52.512Z,1021.6
2023-05-19T10:26:52.602Z,1021.6
2023-05-19T10:27:52.546Z,1021.6
2023-05-19T10:28:52.522Z,1021.6
2023-05-19T10:29:52.572Z,1021.7
2023-05-19T10:30:52.527Z,1021.5
2023-05-19T10:31:52.656Z,1021.5
2023-05-19T10:32:52.612Z,1021.5
2023-05-19T10:33:52.594Z,1021.4
2023-05-19T10:34:52.634Z,1021.6
2023-05-19T10:35:52.602Z,1021.5
2023-05-19T10:36:52.611Z,1021.5
2023-05-19T10:37:52.625Z,1021.5
2023-05-19T10:38:52.636Z,1021.4
2023-05-19T10:39:52.631Z,1021.5
2023-05-19T10:40:52.630Z,1021.4
2023-05-19T10:41:52.679Z,1021.4
2023-05-19T10:42:52.699Z,1021.5
2023-05-19T10:43:52.668Z,1021.4
2023-05-19T10:44:52.835Z,1021.4
2023-05-19T10:45:52.793Z,1021.5
2023-05-19T10:46:56.674Z,1021.4
2023-05-19T10:47:52.793Z,1021.5
2023-05-19T10:48:52.735Z,1021.4
2023-05-19T10:49:52.759Z,1021.4
2023-05-19T10:50:52.750Z,1021.5
2023-05-19T10:51:52.800Z,1021.5
2023-05-19T10:52:52.786Z,1021.4
2023-05-19T10:53:52.834Z,1021.4
2023-05-19T10:54:52.810Z,1021.4
2023-05-19T10:55:52.840Z,1021.4
2023-05-19T10:56:52.833Z,1021.3
2023-05-19T10:57:52.852Z,1021.4
2023-05-19T10:58:52.870Z,1021.4
2023-05-19T10:59:52.873Z,1021.3
2023-05-19T11:00:52.862Z,1021.3
2023-05-19T11:01:52.995Z,1021.3
2023-05-19T11:02:53.053Z,1021.4
2023-05-19T11:03:52.993Z,1021.4
2023-05-19T11:04:52.970Z,1021.4
2023-05-19T11:05:52.953Z,1021.5
2023-05-19T11:06:52.953Z,1021.5
2023-05-19T11:07:53.047Z,1021.4
2023-05-19T11:08:52.998Z,1021.4
2023-05-19T11:09:53.013Z,1021.3
2023-05-19T11:10:53.008Z,1021.4
2023-05-19T11:11:53.081Z,1021.3
2023-05-19T11:12:53.024Z,1021.2
2023-05-19T11:13:53.052Z,1021.3
2023-05-19T11:14:53.086Z,1021.3
2023-05-19T11:15:53.159Z,1021.3
2023-05-19T11:16:53.293Z,1021.2
2023-05-19T11:17:53.182Z,1021.2
2023-05-19T11:18:53.234Z,1021.3
2023-05-19T11:19:53.126Z,1021.2
2023-05-19T11:20:53.276Z,1021.2
2023-05-19T11:21:53.176Z,1021.2
2023-05-19T11:22:53.274Z,1021.3
2023-05-19T11:23:53.318Z,1021.2
2023-05-19T11:24:53.235Z,1021.2
2023-05-19T11:25:53.204Z,1021.3
2023-05-19T11:26:53.291Z,1021.3
2023-05-19T11:27:53.252Z,1021.3
2023-05-19T11:28:53.244Z,1021.3
2023-05-19T11:29:53.295Z,1021.1
2023-05-19T11:30:53.271Z,1021.2
2023-05-19T11:31:53.330Z,1021.2
2023-05-19T11:32:53.408Z,1021.1
2023-05-19T11:33:53.363Z,1021.2
2023-05-19T11:34:53.323Z,1021.2
2023-05-19T11:35:53.343Z,1021.1
2023-05-19T11:36:53.342Z,1021.1
2023-05-19T11:37:53.356Z,1021.1
2023-05-19T11:38:53.378Z,1021.1
2023-05-19T11:39:53.398Z,1021.1
2023-05-19T11:40:53.422Z,1021.2
2023-05-19T11:41:53.421Z,1021.2
2023-05-19T11:42:53.428Z,1021.2
2023-05-19T11:43:53.563Z,1021.0
2023-05-19T11:44:53.463Z,1021.1
2023-05-19T11:45:53.586Z,1021.0
2023-05-19T11:46:53.668Z,1021.0
2023-05-19T11:48:02.833Z,1021.0
2023-05-19T11:48:53.547Z,1021.1
2023-05-19T11:49:53.540Z,1021.0
2023-05-19T11:50:53.550Z,1021.0
2023-05-19T11:51:53.563Z,1021.0
2023-05-19T11:52:53.560Z,1021.0
2023-05-19T11:53:53.702Z,1021.0
2023-05-19T11:54:53.684Z,1021.1
2023-05-19T11:55:53.734Z,1021.0
2023-05-19T11:56:53.615Z,1021.1
2023-05-19T11:58:05.383Z,1021.1
2023-05-19T11:58:53.631Z,1021.1
2023-05-19T11:59:53.638Z,1021.0
2023-05-19T12:00:53.661Z,1021.0
2023-05-19T12:01:53.663Z,1021.0
2023-05-19T12:02:53.785Z,1021.0
2023-05-19T12:03:54.241Z,1021.1
2023-05-19T12:04:53.791Z,1021.1
2023-05-19T12:05:53.813Z,1021.1
2023-05-19T12:06:53.721Z,1021.0
2023-05-19T12:07:53.741Z,1021.0
2023-05-19T12:08:53.746Z,1021.0
2023-05-19T12:09:53.761Z,1020.9
2023-05-19T12:10:53.779Z,1021.0
2023-05-19T12:11:53.808Z,1021.1
2023-05-19T12:12:53.809Z,1021.1
2023-05-19T12:13:53.845Z,1021.0
2023-05-19T12:14:53.877Z,1021.0
2023-05-19T12:15:53.993Z,1020.9
2023-05-19T12:16:54.093Z,1020.9
2023-05-19T12:17:53.991Z,1021.0
2023-05-19T12:18:53.933Z,1020.8
2023-05-19T12:19:53.907Z,1020.9
2023-05-19T12:20:53.910Z,1021.0
2023-05-19T12:21:53.976Z,1021.0
2023-05-19T12:22:53.952Z,1020.9
2023-05-19T12:23:53.947Z,1020.9
2023-05-19T12:24:53.954Z,1020.9
2023-05-19T12:25:53.969Z,1020.9
2023-05-19T12:26:54.000Z,1020.9
2023-05-19T12:27:56.128Z,1020.8
2023-05-19T12:28:54.014Z,1020.9
2023-05-19T12:29:54.065Z,1020.8
2023-05-19T12:30:54.043Z,1020.8
2023-05-19T12:31:54.153Z,1020.8
2023-05-19T12:32:54.202Z,1020.7
2023-05-19T12:33:54.089Z,1020.8
2023-05-19T12:34:54.091Z,1020.7
2023-05-19T12:35:54.116Z,1020.8
2023-05-19T12:36:54.140Z,1020.7
2023-05-19T12:37:54.136Z,1020.8
2023-05-19T12:38:54.142Z,1020.8
2023-05-19T12:39:54.152Z,1020.8
2023-05-19T12:40:54.307Z,1020.8
2023-05-19T12:41:54.192Z,1020.8
2023-05-19T12:42:54.193Z,1020.8
2023-05-19T12:43:54.206Z,1020.8
2023-05-19T12:44:54.228Z,1020.8
2023-05-19T12:45:54.300Z,1020.7
2023-05-19T12:46:54.235Z,1020.8
2023-05-19T12:47:54.351Z,1020.8